createdAt,value
2019-05-07T00:01:44.822Z,3.30
2019-05-07T00:04:13.497Z,3.30
2019-05-07T00:06:43.438Z,3.30
2019-05-07T00:09:14.407Z,3.20
2019-05-07T00:11:43.111Z,3.20
2019-05-07T00:14:12.634Z,3.10
2019-05-07T00:16:42.181Z,3.10
2019-05-07T00:19:12.922Z,3.00
2019-05-07T00:21:42.330Z,3.00
2019-05-07T00:24:13.147Z,3.00
2019-05-07T00:26:43.086Z,2.90
2019-05-07T00:29:12.957Z,2.90
2019-05-07T00:31:42.134Z,2.80
2019-05-07T00:34:12.613Z,2.80
2019-05-07T00:36:45.785Z,2.80
2019-05-07T00:39:15.991Z,2.80
2019-05-07T00:41:52.271Z,2.80
2019-05-07T00:44:22.105Z,2.90
2019-05-07T00:46:52.552Z,3.10
2019-05-07T00:49:22.420Z,3.30
2019-05-07T00:51:51.944Z,3.40
2019-05-07T00:54:22.878Z,3.50
2019-05-07T00:56:52.128Z,3.40
2019-05-07T00:59:22.620Z,3.40
2019-05-07T01:01:52.828Z,3.20
2019-05-07T01:04:22.956Z,3.10
2019-05-07T01:06:53.231Z,3.00
2019-05-07T01:09:22.937Z,3.00
2019-05-07T01:11:52.306Z,2.90
2019-05-07T01:14:22.848Z,2.90
2019-05-07T01:16:52.873Z,2.90
2019-05-07T01:19:22.013Z,3.00
2019-05-07T01:21:52.488Z,2.90
2019-05-07T01:24:23.071Z,2.90
2019-05-07T01:26:52.969Z,3.00
2019-05-07T01:29:22.607Z,2.90
2019-05-07T01:32:05.058Z,2.80
2019-05-07T01:34:38.008Z,2.70
2019-05-07T01:37:06.568Z,2.70
2019-05-07T01:39:35.104Z,2.60
2019-05-07T01:42:03.734Z,2.60
2019-05-07T01:44:32.691Z,2.60
2019-05-07T01:47:02.523Z,2.60
2019-05-07T01:49:33.013Z,2.60
2019-05-07T01:52:02.579Z,2.60
2019-05-07T01:54:33.244Z,2.60
2019-05-07T01:57:02.866Z,2.60
2019-05-07T01:59:32.213Z,2.50
2019-05-07T02:02:03.013Z,2.50
2019-05-07T02:04:33.227Z,2.50
2019-05-07T02:07:06.474Z,2.50
2019-05-07T02:09:42.548Z,2.50
2019-05-07T02:12:15.437Z,2.50
2019-05-07T02:14:44.003Z,2.40
2019-05-07T02:17:13.652Z,2.40
2019-05-07T02:19:42.598Z,2.30
2019-05-07T02:22:13.279Z,2.30
2019-05-07T02:24:43.407Z,2.20
2019-05-07T02:27:12.579Z,2.10
2019-05-07T02:29:43.069Z,2.10
2019-05-07T02:32:13.377Z,2.00
2019-05-07T02:34:44.184Z,2.00
2019-05-07T02:37:13.913Z,1.90
2019-05-07T02:39:49.669Z,1.90
2019-05-07T02:42:18.220Z,1.80
2019-05-07T02:45:03.249Z,1.80
2019-05-07T02:47:33.252Z,1.70
2019-05-07T02:50:03.564Z,1.60
2019-05-07T02:52:53.309Z,1.60
2019-05-07T02:55:23.146Z,1.60
2019-05-07T02:57:54.080Z,1.50
2019-05-07T03:00:24.234Z,1.50
2019-05-07T03:02:53.264Z,1.40
2019-05-07T03:05:22.980Z,1.50
2019-05-07T03:07:53.584Z,1.30
2019-05-07T03:10:23.660Z,1.20
2019-05-07T03:12:53.664Z,1.10
2019-05-07T03:15:24.161Z,1.00
2019-05-07T03:17:53.803Z,0.90
2019-05-07T03:20:24.159Z,0.80
2019-05-07T03:22:53.825Z,0.70
2019-05-07T03:25:29.953Z,0.70
2019-05-07T03:27:58.477Z,0.60
2019-05-07T03:30:37.916Z,0.70
2019-05-07T03:33:16.146Z,0.70
2019-05-07T03:35:47.241Z,0.60
2019-05-07T03:38:16.024Z,0.50
2019-05-07T03:40:45.045Z,0.40
2019-05-07T03:43:14.302Z,0.40
2019-05-07T03:45:53.690Z,0.30
2019-05-07T03:48:23.743Z,0.30
2019-05-07T03:50:53.133Z,0.30
2019-05-07T03:53:23.188Z,0.20
2019-05-07T03:55:53.824Z,0.20
2019-05-07T03:58:23.510Z,0.10
2019-05-07T04:00:53.634Z,0.10
2019-05-07T04:03:24.443Z,0.00
2019-05-07T04:05:53.342Z,0.00
2019-05-07T04:08:23.683Z,0.00
2019-05-07T04:10:53.870Z,0.00
2019-05-07T04:13:23.826Z,-0.10
2019-05-07T04:15:52.944Z,-0.10
2019-05-07T04:18:23.758Z,-0.10
2019-05-07T04:20:53.994Z,0.00
2019-05-07T04:23:23.259Z,0.00
2019-05-07T04:25:54.361Z,0.00
2019-05-07T04:28:27.400Z,0.00
2019-05-07T04:30:57.079Z,0.00
2019-05-07T04:33:33.570Z,0.00
2019-05-07T04:36:03.889Z,0.00
2019-05-07T04:38:33.479Z,-0.10
2019-05-07T04:41:03.910Z,-0.10
2019-05-07T04:43:33.699Z,-0.10
2019-05-07T04:46:03.205Z,-0.10
2019-05-07T04:48:34.166Z,-0.10
2019-05-07T04:51:03.840Z,0.00
2019-05-07T04:53:32.968Z,0.00
2019-05-07T04:56:03.365Z,0.10
2019-05-07T04:58:33.859Z,0.20
2019-05-07T05:01:03.691Z,0.30
2019-05-07T05:03:34.727Z,0.40
2019-05-07T05:06:02.925Z,0.50
2019-05-07T05:08:32.549Z,0.60
2019-05-07T05:11:03.386Z,0.70
2019-05-07T05:13:33.039Z,0.70
2019-05-07T05:16:03.526Z,0.80
2019-05-07T05:18:32.957Z,0.90
2019-05-07T05:21:09.468Z,1.00
2019-05-07T05:23:41.779Z,1.20
2019-05-07T05:26:09.936Z,1.30
2019-05-07T05:28:38.466Z,1.40
2019-05-07T05:31:07.699Z,1.60
2019-05-07T05:33:36.305Z,1.70
2019-05-07T05:36:05.002Z,1.90
2019-05-07T05:38:33.604Z,2.10
2019-05-07T05:41:02.867Z,2.30
2019-05-07T05:43:33.114Z,2.40
2019-05-07T05:46:03.376Z,2.50
2019-05-07T05:48:33.385Z,2.70
2019-05-07T05:51:03.887Z,2.80
2019-05-07T05:53:34.058Z,3.00
2019-05-07T05:56:04.390Z,3.10
2019-05-07T05:58:52.689Z,3.30
2019-05-07T06:01:28.482Z,3.40
2019-05-07T06:03:58.657Z,3.50
2019-05-07T06:06:37.989Z,3.70
2019-05-07T06:09:19.055Z,3.80
2019-05-07T06:11:52.230Z,3.90
2019-05-07T06:14:27.977Z,4.00
2019-05-07T06:16:58.181Z,4.20
2019-05-07T06:19:32.808Z,4.20
2019-05-07T06:22:03.235Z,4.30
2019-05-07T06:24:33.399Z,4.40
2019-05-07T06:27:02.939Z,4.50
2019-05-07T06:29:33.027Z,4.60
2019-05-07T06:32:03.382Z,4.80
2019-05-07T06:34:34.101Z,4.90
2019-05-07T06:37:02.409Z,5.00
2019-05-07T06:39:32.846Z,5.20
2019-05-07T06:42:19.133Z,5.40
2019-05-07T06:44:49.395Z,5.70
2019-05-07T06:47:17.933Z,6.10
2019-05-07T06:49:46.485Z,6.30
2019-05-07T06:52:15.020Z,6.40
2019-05-07T06:54:43.580Z,6.70
2019-05-07T06:57:13.034Z,7.10
2019-05-07T06:59:43.477Z,7.50
2019-05-07T07:02:19.167Z,7.70
2019-05-07T07:04:49.380Z,7.90
2019-05-07T07:07:30.935Z,8.00
2019-05-07T07:10:02.689Z,8.10
2019-05-07T07:12:33.212Z,8.10
2019-05-07T07:15:02.778Z,8.10
2019-05-07T07:17:32.605Z,8.30
2019-05-07T07:20:02.170Z,8.60
2019-05-07T07:22:31.970Z,8.90
2019-05-07T07:25:02.566Z,9.20
2019-05-07T07:27:32.181Z,9.40
2019-05-07T07:30:14.204Z,9.60
2019-05-07T07:32:44.399Z,9.90
2019-05-07T07:35:14.957Z,10.00
2019-05-07T07:37:43.495Z,10.20
2019-05-07T07:40:15.240Z,10.30
2019-05-07T07:42:43.922Z,10.40
2019-05-07T07:45:19.142Z,10.40
2019-05-07T07:47:48.129Z,10.20
2019-05-07T07:50:17.125Z,10.10
2019-05-07T07:52:45.798Z,10.00
2019-05-07T07:55:16.664Z,9.90
2019-05-07T07:57:49.614Z,9.70
2019-05-07T08:00:36.817Z,9.80
2019-05-07T08:03:07.068Z,9.90
2019-05-07T08:05:35.606Z,10.10
2019-05-07T08:08:04.312Z,10.30
2019-05-07T08:10:32.851Z,10.50
2019-05-07T08:13:02.120Z,10.70
2019-05-07T08:15:33.027Z,10.70
2019-05-07T08:18:02.765Z,10.80
2019-05-07T08:20:32.655Z,11.10
2019-05-07T08:23:02.994Z,11.20
2019-05-07T08:25:52.279Z,11.00
2019-05-07T08:28:22.809Z,11.30
2019-05-07T08:31:04.586Z,11.30
2019-05-07T08:33:51.709Z,11.00
2019-05-07T08:36:19.822Z,10.80
2019-05-07T08:38:53.092Z,10.80
2019-05-07T08:41:23.415Z,10.60
2019-05-07T08:44:08.073Z,10.50
2019-05-07T08:46:34.661Z,10.50
2019-05-07T08:49:03.455Z,10.50
2019-05-07T08:51:32.713Z,10.60
2019-05-07T08:54:07.326Z,10.50
2019-05-07T08:56:38.105Z,10.50
2019-05-07T08:59:07.996Z,10.50
2019-05-07T09:01:38.740Z,10.70
2019-05-07T09:04:07.717Z,10.90
2019-05-07T09:06:36.429Z,11.10
2019-05-07T09:09:13.404Z,11.30
2019-05-07T09:11:42.656Z,11.30
2019-05-07T09:14:12.620Z,11.20
2019-05-07T09:16:42.613Z,11.10
2019-05-07T09:19:12.816Z,10.80
2019-05-07T09:21:42.862Z,10.90
2019-05-07T09:24:12.370Z,10.70
2019-05-07T09:26:48.889Z,10.80
2019-05-07T09:29:25.241Z,11.00
2019-05-07T09:32:12.072Z,11.40
2019-05-07T09:34:42.389Z,11.70
2019-05-07T09:37:12.706Z,11.90
2019-05-07T09:39:42.755Z,11.60
2019-05-07T09:42:12.221Z,11.40
2019-05-07T09:44:42.541Z,11.50
2019-05-07T09:47:12.937Z,11.60
2019-05-07T09:49:41.959Z,11.60
2019-05-07T09:52:12.303Z,11.80
2019-05-07T09:54:42.696Z,11.90
2019-05-07T09:57:25.247Z,12.20
2019-05-07T09:59:42.594Z,12.40
2019-05-07T10:02:12.289Z,12.30
2019-05-07T10:04:41.784Z,12.50
2019-05-07T10:07:12.607Z,12.40
2019-05-07T10:09:42.596Z,12.40
2019-05-07T10:12:12.836Z,12.00
2019-05-07T10:14:42.076Z,12.00
2019-05-07T10:17:32.611Z,12.40
2019-05-07T10:20:04.438Z,12.70
2019-05-07T10:22:32.267Z,13.10
2019-05-07T10:25:02.936Z,13.40
2019-05-07T10:27:32.472Z,13.40
2019-05-07T10:30:02.609Z,13.10
2019-05-07T10:32:32.221Z,13.00
2019-05-07T10:35:02.198Z,12.80
2019-05-07T10:37:31.856Z,12.60
2019-05-07T10:40:03.114Z,12.70
2019-05-07T10:42:32.387Z,12.80
2019-05-07T10:45:19.464Z,12.70
2019-05-07T10:48:05.690Z,12.90
2019-05-07T10:50:39.185Z,13.40
2019-05-07T10:53:06.069Z,13.60
2019-05-07T10:55:34.703Z,13.70
2019-05-07T10:58:03.388Z,13.80
2019-05-07T11:00:33.109Z,13.90
2019-05-07T11:03:02.507Z,14.00
2019-05-07T11:05:32.617Z,13.80
2019-05-07T11:08:02.079Z,13.80
2019-05-07T11:10:32.622Z,13.90
2019-05-07T11:13:02.297Z,13.70
2019-05-07T11:15:32.603Z,13.40
2019-05-07T11:18:06.473Z,13.40
2019-05-07T11:20:46.454Z,13.40
2019-05-07T11:23:05.319Z,13.50
2019-05-07T11:25:34.394Z,13.70
2019-05-07T11:28:03.068Z,14.00
2019-05-07T11:30:32.155Z,14.20
2019-05-07T11:33:02.668Z,14.30
2019-05-07T11:35:31.883Z,14.10
2019-05-07T11:38:11.014Z,14.30
2019-05-07T11:40:32.212Z,14.40
2019-05-07T11:43:08.970Z,14.50
2019-05-07T11:45:39.204Z,14.70
2019-05-07T11:48:07.773Z,14.90
2019-05-07T11:50:42.235Z,14.90
2019-05-07T11:53:14.989Z,14.80
2019-05-07T11:55:43.537Z,14.60
2019-05-07T11:58:12.876Z,14.40
2019-05-07T12:00:43.983Z,14.00
2019-05-07T12:03:12.622Z,13.80
2019-05-07T12:05:42.270Z,13.60
2019-05-07T12:08:13.058Z,13.60
2019-05-07T12:10:41.338Z,13.50
2019-05-07T12:13:09.875Z,13.60
2019-05-07T12:15:38.784Z,13.60
2019-05-07T12:18:07.461Z,13.70
2019-05-07T12:20:36.152Z,13.80
2019-05-07T12:23:04.856Z,14.00
2019-05-07T12:25:33.458Z,14.10
2019-05-07T12:28:02.757Z,14.40
2019-05-07T12:30:45.492Z,14.60
2019-05-07T12:33:15.687Z,14.50
2019-05-07T12:35:44.290Z,14.70
2019-05-07T12:38:12.895Z,15.00
2019-05-07T12:40:41.918Z,15.30
2019-05-07T12:43:10.704Z,15.60
2019-05-07T12:45:39.223Z,15.70
2019-05-07T12:48:07.811Z,15.90
2019-05-07T12:50:36.382Z,15.90
2019-05-07T12:53:09.329Z,16.00
2019-05-07T12:55:39.622Z,15.90
2019-05-07T12:58:08.286Z,15.90
2019-05-07T13:00:44.685Z,15.90
2019-05-07T13:03:32.334Z,15.70
2019-05-07T13:06:02.541Z,15.60
2019-05-07T13:08:32.924Z,15.50
2019-05-07T13:11:03.086Z,15.50
2019-05-07T13:13:32.201Z,15.40
2019-05-07T13:16:02.748Z,15.30
2019-05-07T13:18:31.441Z,15.30
2019-05-07T13:21:02.209Z,15.20
2019-05-07T13:23:31.787Z,15.20
2019-05-07T13:26:02.654Z,15.20
2019-05-07T13:28:30.958Z,15.30
2019-05-07T13:30:59.565Z,15.30
2019-05-07T13:33:29.438Z,15.30
2019-05-07T13:36:02.181Z,15.50
2019-05-07T13:38:38.445Z,15.50
2019-05-07T13:41:08.704Z,15.40
2019-05-07T13:43:41.675Z,15.10
2019-05-07T13:46:15.284Z,14.90
2019-05-07T13:48:45.781Z,14.80
2019-05-07T13:51:14.504Z,14.80
2019-05-07T13:53:43.104Z,14.80
2019-05-07T13:56:12.823Z,14.80
2019-05-07T13:58:42.825Z,14.90
2019-05-07T14:01:28.282Z,14.70
2019-05-07T14:03:56.980Z,14.50
2019-05-07T14:06:42.693Z,14.40
2019-05-07T14:09:14.487Z,14.40
2019-05-07T14:11:43.168Z,14.60
2019-05-07T14:14:12.372Z,14.70
2019-05-07T14:16:44.713Z,14.70
2019-05-07T14:19:12.960Z,14.70
2019-05-07T14:21:42.269Z,14.60
2019-05-07T14:24:12.389Z,14.40
2019-05-07T14:26:42.280Z,14.40
2019-05-07T14:29:11.096Z,14.40
2019-05-07T14:31:39.724Z,14.60
2019-05-07T14:34:12.384Z,14.60
2019-05-07T14:36:42.647Z,14.70
2019-05-07T14:39:11.374Z,14.80
2019-05-07T14:41:39.975Z,14.60
2019-05-07T14:44:16.077Z,14.70
2019-05-07T14:46:50.850Z,14.70
2019-05-07T14:49:15.176Z,14.80
2019-05-07T14:51:43.871Z,15.00
2019-05-07T14:54:12.539Z,15.00
2019-05-07T14:56:42.827Z,15.10
2019-05-07T14:59:12.777Z,14.90
2019-05-07T15:01:42.979Z,14.90
2019-05-07T15:04:12.920Z,14.80
2019-05-07T15:06:41.608Z,14.80
2019-05-07T15:09:12.147Z,14.80
2019-05-07T15:11:42.514Z,14.80
2019-05-07T15:14:12.059Z,14.80
2019-05-07T15:16:42.701Z,14.70
2019-05-07T15:19:12.501Z,14.70
2019-05-07T15:21:42.613Z,14.80
2019-05-07T15:24:14.551Z,14.80
2019-05-07T15:26:43.228Z,14.60
2019-05-07T15:29:13.109Z,14.70
2019-05-07T15:31:46.111Z,14.60
2019-05-07T15:34:14.832Z,14.50
2019-05-07T15:36:43.500Z,14.60
2019-05-07T15:39:13.432Z,14.60
2019-05-07T15:41:42.608Z,14.60
2019-05-07T15:44:11.963Z,14.70
2019-05-07T15:46:42.688Z,14.70
2019-05-07T15:49:12.531Z,14.70
2019-05-07T15:51:41.907Z,14.70
2019-05-07T15:54:12.802Z,14.60
2019-05-07T15:56:41.351Z,14.60
2019-05-07T15:59:12.812Z,14.50
2019-05-07T16:01:41.946Z,14.50
2019-05-07T16:04:20.049Z,14.60
2019-05-07T16:06:42.494Z,14.70
2019-05-07T16:09:12.919Z,14.80
2019-05-07T16:11:43.041Z,14.80
2019-05-07T16:14:19.699Z,14.70
2019-05-07T16:16:48.270Z,14.60
2019-05-07T16:19:21.159Z,14.50
2019-05-07T16:21:49.719Z,14.40
2019-05-07T16:24:18.332Z,14.40
2019-05-07T16:26:46.887Z,14.40
2019-05-07T16:29:15.428Z,14.40
2019-05-07T16:31:44.397Z,14.20
2019-05-07T16:34:12.939Z,14.20
2019-05-07T16:36:42.116Z,14.20
2019-05-07T16:39:12.108Z,14.00
2019-05-07T16:41:42.261Z,13.90
2019-05-07T16:44:12.205Z,13.90
2019-05-07T16:46:42.211Z,13.90
2019-05-07T16:49:12.021Z,14.00
2019-05-07T16:51:44.212Z,14.00
2019-05-07T16:54:12.188Z,14.10
2019-05-07T16:56:42.846Z,14.20
2019-05-07T16:59:12.530Z,14.20
2019-05-07T17:01:42.929Z,14.10
2019-05-07T17:04:12.191Z,14.00
2019-05-07T17:06:42.624Z,13.90
2019-05-07T17:09:13.496Z,13.80
2019-05-07T17:11:43.669Z,13.70
2019-05-07T17:14:13.077Z,13.70
2019-05-07T17:16:41.785Z,13.70
2019-05-07T17:19:11.901Z,13.70
2019-05-07T17:21:42.644Z,13.70
2019-05-07T17:24:11.978Z,13.60
2019-05-07T17:26:42.357Z,13.50
2019-05-07T17:29:12.053Z,13.50
2019-05-07T17:31:42.501Z,13.40
2019-05-07T17:34:11.839Z,13.40
2019-05-07T17:36:42.171Z,13.30
2019-05-07T17:39:12.206Z,13.10
2019-05-07T17:41:42.726Z,13.00
2019-05-07T17:44:11.875Z,13.00
2019-05-07T17:46:42.718Z,12.90
2019-05-07T17:49:12.035Z,12.80
2019-05-07T17:51:42.500Z,12.70
2019-05-07T17:54:13.161Z,12.60
2019-05-07T17:56:42.807Z,12.50
2019-05-07T17:59:12.204Z,12.40
2019-05-07T18:01:58.066Z,12.30
2019-05-07T18:04:27.073Z,12.10
2019-05-07T18:06:55.710Z,11.90
2019-05-07T18:09:24.226Z,11.90
2019-05-07T18:11:52.803Z,11.80
2019-05-07T18:14:22.810Z,11.60
2019-05-07T18:16:59.200Z,11.50
2019-05-07T18:19:29.443Z,11.50
2019-05-07T18:21:57.976Z,11.30
2019-05-07T18:24:26.544Z,11.20
2019-05-07T18:26:55.297Z,11.10
2019-05-07T18:29:23.854Z,11.10
2019-05-07T18:31:56.479Z,10.80
2019-05-07T18:34:25.006Z,10.70
2019-05-07T18:36:53.644Z,10.80
2019-05-07T18:39:22.180Z,10.60
2019-05-07T18:41:52.330Z,10.40
2019-05-07T18:44:22.378Z,10.20
2019-05-07T18:46:52.849Z,10.10
2019-05-07T18:49:21.279Z,10.00
2019-05-07T18:51:52.025Z,9.80
2019-05-07T18:54:27.917Z,9.60
2019-05-07T18:56:52.700Z,9.40
2019-05-07T18:59:22.609Z,9.40
2019-05-07T19:01:52.743Z,9.10
2019-05-07T19:04:21.911Z,9.00
2019-05-07T19:06:51.797Z,8.90
2019-05-07T19:09:22.495Z,8.80
2019-05-07T19:11:52.271Z,8.70
2019-05-07T19:14:22.657Z,8.60
2019-05-07T19:16:52.570Z,8.50
2019-05-07T19:19:22.276Z,8.50
2019-05-07T19:21:53.001Z,8.50
2019-05-07T19:24:24.097Z,8.60
2019-05-07T19:26:52.819Z,8.70
2019-05-07T19:29:23.313Z,8.50
2019-05-07T19:31:52.496Z,8.30
2019-05-07T19:34:21.890Z,8.20
2019-05-07T19:36:52.023Z,8.20
2019-05-07T19:39:23.163Z,8.00
2019-05-07T19:41:52.322Z,8.00
2019-05-07T19:44:21.227Z,8.00
2019-05-07T19:46:49.766Z,7.80
2019-05-07T19:49:18.309Z,7.80
2019-05-07T19:51:46.863Z,7.70
2019-05-07T19:54:15.400Z,7.70
2019-05-07T19:56:44.929Z,7.70
2019-05-07T19:59:13.519Z,7.70
2019-05-07T20:01:43.711Z,7.70
2019-05-07T20:04:13.278Z,7.70
2019-05-07T20:06:42.870Z,7.70
2019-05-07T20:09:15.653Z,7.60
2019-05-07T20:11:48.039Z,7.40
2019-05-07T20:14:16.671Z,7.20
2019-05-07T20:16:45.349Z,7.00
2019-05-07T20:19:14.182Z,6.90
2019-05-07T20:21:42.848Z,6.80
2019-05-07T20:24:12.474Z,6.70
2019-05-07T20:26:43.059Z,6.70
2019-05-07T20:29:13.404Z,6.60
2019-05-07T20:31:42.451Z,6.70
2019-05-07T20:34:13.061Z,6.80
2019-05-07T20:36:42.795Z,6.70
2019-05-07T20:39:12.765Z,6.50
2019-05-07T20:41:42.921Z,6.50
2019-05-07T20:44:12.500Z,6.50
2019-05-07T20:46:42.115Z,6.50
2019-05-07T20:49:12.894Z,6.50
2019-05-07T20:51:41.905Z,6.40
2019-05-07T20:54:12.879Z,6.20
2019-05-07T20:56:55.587Z,6.20
2019-05-07T20:59:24.127Z,6.10
2019-05-07T21:01:52.780Z,6.00
2019-05-07T21:04:22.288Z,5.90
2019-05-07T21:06:52.531Z,5.80
2019-05-07T21:09:22.062Z,5.60
2019-05-07T21:11:50.851Z,5.50
2019-05-07T21:14:19.487Z,5.60
2019-05-07T21:16:48.075Z,5.50
2019-05-07T21:19:16.725Z,5.40
2019-05-07T21:21:45.309Z,5.30
2019-05-07T21:24:13.855Z,5.20
2019-05-07T21:26:42.608Z,5.00
2019-05-07T21:29:13.427Z,4.70
2019-05-07T21:31:43.122Z,4.60
2019-05-07T21:34:12.567Z,4.60
2019-05-07T21:36:43.184Z,4.60
2019-05-07T21:39:12.955Z,4.70
2019-05-07T21:41:42.642Z,4.60
2019-05-07T21:44:11.461Z,4.60
2019-05-07T21:46:42.340Z,4.60
2019-05-07T21:49:12.257Z,4.50
2019-05-07T21:51:40.395Z,4.30
2019-05-07T21:54:16.054Z,4.30
2019-05-07T21:56:54.466Z,4.30
2019-05-07T21:59:32.692Z,4.30
2019-05-07T22:02:08.023Z,4.10
2019-05-07T22:04:36.563Z,4.10
2019-05-07T22:07:05.188Z,4.00
2019-05-07T22:09:33.790Z,3.90
2019-05-07T22:12:03.728Z,3.80
2019-05-07T22:14:32.898Z,3.70
2019-05-07T22:17:02.036Z,3.70
2019-05-07T22:19:33.570Z,3.70
2019-05-07T22:22:02.940Z,3.70
2019-05-07T22:24:32.842Z,3.60
2019-05-07T22:27:01.753Z,3.50
2019-05-07T22:29:31.770Z,3.50
2019-05-07T22:32:08.200Z,3.50
2019-05-07T22:34:44.767Z,3.50
2019-05-07T22:37:13.330Z,3.50
2019-05-07T22:39:41.935Z,3.50
2019-05-07T22:42:11.865Z,3.50
2019-05-07T22:44:42.455Z,3.50
2019-05-07T22:47:12.520Z,3.40
2019-05-07T22:49:41.983Z,3.20
2019-05-07T22:52:12.818Z,3.10
2019-05-07T22:54:42.557Z,3.10
2019-05-07T22:57:14.191Z,3.00
2019-05-07T22:59:43.355Z,3.00
2019-05-07T23:02:12.271Z,2.90
2019-05-07T23:04:43.051Z,2.90
2019-05-07T23:07:12.781Z,3.00
2019-05-07T23:09:41.972Z,3.00
2019-05-07T23:12:12.431Z,3.00
2019-05-07T23:14:41.063Z,3.00
2019-05-07T23:17:09.668Z,2.90
2019-05-07T23:19:38.218Z,2.80
2019-05-07T23:22:06.763Z,2.70
2019-05-07T23:24:35.314Z,2.70
2019-05-07T23:27:03.842Z,2.60
2019-05-07T23:29:33.050Z,2.60
2019-05-07T23:32:02.089Z,2.60
2019-05-07T23:34:32.604Z,2.70
2019-05-07T23:37:02.537Z,2.70
2019-05-07T23:39:32.851Z,2.80
2019-05-07T23:42:03.063Z,2.80
2019-05-07T23:44:31.597Z,2.70
2019-05-07T23:47:02.604Z,2.70
2019-05-07T23:49:32.213Z,2.70
2019-05-07T23:52:02.412Z,2.70
2019-05-07T23:54:31.896Z,2.80
2019-05-07T23:57:07.118Z,2.80
2019-05-07T23:59:32.863Z,2.80
